Flight Track Log - Related Links

Times and Time Zones

All times are in EDT time to prevent confusion due to time zone crossing. See the ASH2638 flight status page for this flight to view local times or setup timezone preferences in your user account.

Time Position Orientation Groundspeed Altitude Reporting Facility
EDT Latitude Longitude Course Direction KTS MPH feet Rate Location/Type
Thu 05:38:19 PM 33.4333 -112.0333 273° West 168 193 2,000  Level Phoenix TRACON
Thu 05:38:36 PM 33.4308 -112.0467 257° West 162 186 2,200 1,443 Climbing Albuquerque Center
Thu 05:39:38 PM 33.4086 -112.1331 253° West 233 268 3,900 2,081 Climbing Albuquerque Center
Thu 05:40:40 PM 33.4028 -112.2236 266° West 281 323 6,500 2,565 Climbing Albuquerque Center
Thu 05:41:00 PM 33.4350 -112.4221 273° West  Level FlightAware Approximate
Thu 05:41:42 PM 33.4103 -112.3150 276° West 279 321 9,200  Level Albuquerque Center
Thu 05:42:00 PM 33.4393 -112.5276 273° West  Level FlightAware Approximate
Thu 05:42:44 PM 33.4189 -112.4125 276° West 292 336 11,000  Level Albuquerque Center
Thu 05:43:00 PM 33.4435 -112.6330 273° West  Level FlightAware Approximate
Thu 05:43:46 PM 33.4281 -112.5253 276° West 335 386 13,200  Level Albuquerque Center
Thu 05:45:33 PM 33.4475 -112.7458 276° West 350 403 17,600 2,371 Climbing Los Angeles Center
Thu 05:45:50 PM 33.4494 -112.7697 276° West 352 405 18,100 1,747 Climbing Albuquerque Center
Thu 05:46:52 PM 33.4656 -112.8861 279° West 357 411 19,900 1,742 Climbing Albuquerque Center
Thu 05:47:54 PM 33.4886 -113.0047 283° West 365 420 21,700 1,887 Climbing Albuquerque Center
Thu 05:48:56 PM 33.5169 -113.1514 283° West 375 432 23,800 1,694 Climbing Albuquerque Center
Thu 05:49:58 PM 33.5406 -113.2750 283° West 381 438 25,200 1,355 Climbing Albuquerque Center
Thu 05:51:00 PM 33.5647 -113.4044 283° West 394 453 26,600 1,500 Climbing Albuquerque Center
Thu 05:52:02 PM 33.5892 -113.5347 283° West 401 461 28,300 1,258 Climbing Albuquerque Center
Thu 05:53:04 PM 33.6158 -113.6817 282° West 400 460 29,200 823 Climbing Albuquerque Center
Thu 05:54:06 PM 33.6414 -113.8169 283° West 412 474 30,000 387 Climbing Albuquerque Center
Thu 05:55:08 PM 33.6536 -113.9539 276° West 412 474 30,000  Level Albuquerque Center
Thu 05:56:10 PM 33.6675 -114.0919 277° West 416 479 30,000 339 Level Albuquerque Center
Thu 05:57:12 PM 33.6778 -114.2378 275° West 416 479 30,700 871 Climbing Albuquerque Center
Thu 05:58:14 PM 33.6717 -114.3744 267° West 411 473 31,800 629 Climbing Albuquerque Center
Thu 05:59:16 PM 33.6778 -114.5144 273° West 424 488 32,000 99 Climbing Albuquerque Center
Thu 06:00:15 PM 33.6936 -114.6558 278° West 430 495 32,000  Level Los Angeles Center
Thu 06:01:17 PM 33.7117 -114.8253 277° West 429 494 32,000  Level Los Angeles Center
Thu 06:02:19 PM 33.7269 -114.9628 278° West 422 486 32,000  Level Los Angeles Center
Thu 06:03:22 PM 33.7406 -115.1017 277° West 420 483 32,000  Level Los Angeles Center
Thu 06:04:24 PM 33.7564 -115.2408 278° West 421 484 32,000 -290 Level Los Angeles Center
Thu 06:05:26 PM 33.7697 -115.3806 277° West 422 486 31,400 -968 Descending Los Angeles Center
Thu 06:06:28 PM 33.7869 -115.5592 277° West 448 516 30,000 -1,113 Descending Los Angeles Center
Thu 06:07:30 PM 33.7992 -115.6769 277° West 448 516 29,100 -1,065 Descending Los Angeles Center
Thu 06:08:32 PM 33.8153 -115.8458 277° West 426 490 27,800 -1,161 Descending Los Angeles Center
Thu 06:09:34 PM 33.8283 -115.9797 277° West 409 471 26,700 -1,016 Descending Los Angeles Center
Thu 06:10:36 PM 33.8397 -116.1078 276° West 393 452 25,700 -1,008 Descending Los Angeles Center
Thu 06:11:39 PM 33.8525 -116.2364 277° West 389 448 24,600 -1,440 Descending Los Angeles Center
Thu 06:12:41 PM 33.8669 -116.3886 277° West 384 442 22,700 -1,935 Descending Los Angeles Center
Thu 06:13:43 PM 33.8750 -116.5108 275° West 368 423 20,600 -2,177 Descending Los Angeles Center
Thu 06:14:45 PM 33.8794 -116.6289 273° West 356 410 18,200 -2,274 Descending Los Angeles Center
Thu 06:15:47 PM 33.8853 -116.7436 274° West 348 400 15,900 -2,274 Descending Los Angeles Center
Thu 06:16:49 PM 33.8931 -116.8536 275° West 336 387 13,500 -2,323 Descending Los Angeles Center
Thu 06:17:51 PM 33.9328 -116.9750 292° West 327 376 11,100 -1,774 Descending Los Angeles Center
Thu 06:18:44 PM 33.9500 -117.0500 285° West 278 320 10,100 -1,966 Descending Southern California TRACON
Thu 06:19:50 PM 33.9833 -117.1500 292° West 283 326 7,200 -2,132 Descending Southern California TRACON
Thu 06:20:45 PM 34.0167 -117.2167 301° West 259 298 5,800 -1,388 Descending Southern California TRACON
Thu 06:21:51 PM 34.0333 -117.3167 281° West 231 266 4,400 -750 Descending Southern California TRACON
Thu 06:22:45 PM 34.0500 -117.3667 292° West 198 228 4,300 -470 Descending Southern California TRACON
Thu 06:23:46 PM 34.0500 -117.4333 270° West 173 199 3,500 -843 Descending Southern California TRACON
Thu 06:24:46 PM 34.0500 -117.4833 270° West 146 168 2,600 -800 Descending Southern California TRACON
Thu 06:25:46 PM 34.0500 -117.5333 270° West 150 173 1,900 -750 Descending Southern California TRACON
Thu 06:26:46 PM 34.0500 -117.5833 270° West 145 167 1,100 -800 Descending Southern California TRACON

Login

Don't have an account? Register now (free) for customized features, flight alerts, and more!